DAUO/ELU METAR and TAF weather

Enter ICAO airport designator
Station Type Date Time Source
DAUO METAR 2020/01/18 04:00 UTC NOAA

DAUO 180400Z 18003KT CAVOK 03/02 Q1030


Station Type Date Time Source
DAUO Decoded METAR 2020/01/18 04:00 UTC NOAA

El Oued, Algeria (DAUO) 33-30N 006-07E 63M
Jan 17, 2020 - 11:00 PM EST / 2020.01.18 0400 UTC
Wind: from the S (180 degrees) at 3 MPH (3 KT):0
Visibility: greater than 7 mile(s):0
Temperature: 37 F (3 C)
Dew Point: 35 F (2 C)
Relative Humidity: 93%
Pressure (altimeter): 30.42 in. Hg (1030 hPa)
ob: DAUO 180400Z 18003KT CAVOK 03/02 Q1030
cycle: 4

Station Type Date Time Source
DAUO TAF 2017/11/09 18:03 UTC NOAA

TAF DAUO 091700Z 0918/1009 28010KT 9999 SCT033 SCT100 PROB30
TEMPO 0918/0924 28015G25KT 5000 -TSRA FEW036CB

Example: see airport list